Kota Waris — S6RJ — position and weather

sailwx.info

Track history (hours):
 
Tides and Currents Weather Stations Pressure Air Temp Water Temp Dewpoint Dewpoint Depression Visibility Wind Speed Wind Dir Waves Ship Positions

Kota Waris

Last reported at 2017-Feb-15 08:33 UTC. Time now 2017-Feb-20 14:06 UTC.
Position N 01°14' E 103°58'.

Length 185 m; draft 9.5 m.

Type: Cargo ship. MMSI: 564482000.

Date/timePositionNaut miles runAvg speedWind from/ knotsBaromVisibWave heightAir tempDewpointWater temp
2017-Feb-15 08:33N 01°14' E 103°58'10 9.8
2017-Feb-15 07:33N 01°13' E 103°48'3 2.6
2017-Feb-15 06:31N 01°16' E 103°47'0 0.0
2017-Feb-15 05:31N 01°16' E 103°47'0 0.0
2017-Feb-15 04:31N 01°16' E 103°47'0 0.0
2017-Feb-15 03:31N 01°16' E 103°47'0 0.0
2017-Feb-15 02:31N 01°16' E 103°47'0 0.0
2017-Feb-15 01:31N 01°16' E 103°47'0 0.0
2017-Feb-15 00:31N 01°16' E 103°47'0 0.0
2017-Feb-14 23:31N 01°16' E 103°47'1 0.9
2017-Feb-14 22:34N 01°15' E 103°47'2 1.9
2017-Feb-14 21:33N 01°17' E 103°46'0 0.0
2017-Feb-14 20:33N 01°17' E 103°46'0 0.0
2017-Feb-14 19:33N 01°17' E 103°46'0 0.0
2017-Feb-14 18:33N 01°17' E 103°46'0 0.0
2017-Feb-14 17:33N 01°17' E 103°46'0 0.0
2017-Feb-14 16:33N 01°17' E 103°46'0 0.0
2017-Feb-14 15:34N 01°17' E 103°46'0 0.0
2017-Feb-14 14:33N 01°17' E 103°46'0 0.0
2017-Feb-14 13:33N 01°17' E 103°46'0 0.0
2017-Feb-14 12:33N 01°17' E 103°46'0 0.0
2017-Feb-14 11:33N 01°17' E 103°46'0 0.0
2017-Feb-14 10:33N 01°17' E 103°46'0 0.0
2017-Feb-14 09:33N 01°17' E 103°46'0 0.0
2017-Feb-14 08:33N 01°17' E 103°46'0 0.0
2017-Feb-14 07:34N 01°17' E 103°46'0 0.0
2017-Feb-14 06:33N 01°17' E 103°46'0 0.1
2017-Feb-14 05:33N 01°17' E 103°46'3 3.3
2017-Feb-14 04:33N 01°14' E 103°47'7 7.3
2017-Feb-14 03:33N 01°14' E 103°55'8 7.7
2017-Feb-14 02:34N 01°16' E 104°02'  
2017-Feb-07 12:18N 01°15' E 104°02'15 8.8
2017-Feb-07 10:32N 01°15' E 103°46'2 1.3
2017-Feb-07 09:07N 01°17' E 103°46'0 0.0
2017-Feb-07 08:19N 01°17' E 103°46'0 0.0
2017-Feb-07 07:31N 01°17' E 103°46'0 0.0
2017-Feb-07 06:25N 01°17' E 103°46'0 0.0
2017-Feb-07 05:31N 01°17' E 103°46'0 0.0
2017-Feb-07 04:31N 01°17' E 103°46'0 0.0
2017-Feb-07 03:28N 01°17' E 103°46'0 0.0
2017-Feb-07 02:25N 01°17' E 103°46'0 0.0
2017-Feb-07 01:28N 01°17' E 103°46'0 0.0
2017-Feb-07 00:31N 01°17' E 103°46'0 0.0
2017-Feb-06 23:25N 01°17' E 103°46'0 0.0
2017-Feb-06 22:25N 01°17' E 103°46'1 0.9
2017-Feb-06 21:33N 01°17' E 103°45'4 3.7
2017-Feb-06 20:33N 01°14' E 103°47'4 3.4
2017-Feb-06 19:27N 01°16' E 103°50'0 0.0
2017-Feb-06 18:33N 01°16' E 103°50'0 0.0
2017-Feb-06 17:33N 01°16' E 103°50'0 0.0
2017-Feb-06 13:09N 01°16' E 103°50'0 0.0
2017-Feb-06 11:33N 01°16' E 103°50'0 0.1
2017-Feb-06 10:33N 01°16' E 103°50'0 0.1
2017-Feb-06 09:33N 01°16' E 103°50'0 0.1
2017-Feb-06 08:27N 01°16' E 103°50'0 0.0
2017-Feb-06 07:27N 01°16' E 103°50'0 0.0
2017-Feb-06 06:33N 01°16' E 103°50'0 0.0
2017-Feb-06 04:33N 01°16' E 103°50'1 1.5
2017-Feb-06 03:33N 01°15' E 103°52'0 0.1
2017-Feb-06 02:33N 01°15' E 103°52'0 0.0
2017-Feb-06 01:24N 01°15' E 103°52'0 0.0
2017-Feb-06 00:24N 01°15' E 103°52'0 0.0
2017-Feb-05 23:30N 01°15' E 103°52'0 0.1
2017-Feb-05 22:30N 01°15' E 103°52'0 0.0
2017-Feb-05 20:33N 01°15' E 103°52'0 0.0
2017-Feb-05 19:24N 01°15' E 103°52'3 3.0
2017-Feb-05 18:33N 01°13' E 103°52'2 2.0
2017-Feb-05 17:25N 01°13' E 103°49'4 4.4
2017-Feb-05 16:33N 01°13' E 103°53'5 5.3
2017-Feb-05 15:33N 01°15' E 103°58'  
Track history (hours):
 
Tides and Currents Weather Stations Pressure Air Temp Water Temp Dewpoint Dewpoint Depression Visibility Wind Speed Wind Dir Waves Ship Positions

Kota Waris

Last reported at 2017-Feb-15 08:33 UTC. Time now 2017-Feb-20 14:06 UTC.
Position N 01°14' E 103°58'.

Length 185 m; draft 9.5 m.

Type: Cargo ship. MMSI: 564482000.

Date/timePositionNaut miles runAvg speedWind from/ knotsBaromVisibWave heightAir tempDewpointWater temp
2017-Feb-15 08:33N 01°14' E 103°58'10 9.8
2017-Feb-15 07:33N 01°13' E 103°48'3 2.6
2017-Feb-15 06:31N 01°16' E 103°47'0 0.0
2017-Feb-15 05:31N 01°16' E 103°47'0 0.0
2017-Feb-15 04:31N 01°16' E 103°47'0 0.0
2017-Feb-15 03:31N 01°16' E 103°47'0 0.0
2017-Feb-15 02:31N 01°16' E 103°47'0 0.0
2017-Feb-15 01:31N 01°16' E 103°47'0 0.0
2017-Feb-15 00:31N 01°16' E 103°47'0 0.0
2017-Feb-14 23:31N 01°16' E 103°47'1 0.9
2017-Feb-14 22:34N 01°15' E 103°47'2 1.9
2017-Feb-14 21:33N 01°17' E 103°46'0 0.0
2017-Feb-14 20:33N 01°17' E 103°46'0 0.0
2017-Feb-14 19:33N 01°17' E 103°46'0 0.0
2017-Feb-14 18:33N 01°17' E 103°46'0 0.0
2017-Feb-14 17:33N 01°17' E 103°46'0 0.0
2017-Feb-14 16:33N 01°17' E 103°46'0 0.0
2017-Feb-14 15:34N 01°17' E 103°46'0 0.0
2017-Feb-14 14:33N 01°17' E 103°46'0 0.0
2017-Feb-14 13:33N 01°17' E 103°46'0 0.0
2017-Feb-14 12:33N 01°17' E 103°46'0 0.0
2017-Feb-14 11:33N 01°17' E 103°46'0 0.0
2017-Feb-14 10:33N 01°17' E 103°46'0 0.0
2017-Feb-14 09:33N 01°17' E 103°46'0 0.0
2017-Feb-14 08:33N 01°17' E 103°46'0 0.0
2017-Feb-14 07:34N 01°17' E 103°46'0 0.0
2017-Feb-14 06:33N 01°17' E 103°46'0 0.1
2017-Feb-14 05:33N 01°17' E 103°46'3 3.3
2017-Feb-14 04:33N 01°14' E 103°47'7 7.3
2017-Feb-14 03:33N 01°14' E 103°55'8 7.7
2017-Feb-14 02:34N 01°16' E 104°02'  
2017-Feb-07 12:18N 01°15' E 104°02'15 8.8
2017-Feb-07 10:32N 01°15' E 103°46'2 1.3
2017-Feb-07 09:07N 01°17' E 103°46'0 0.0
2017-Feb-07 08:19N 01°17' E 103°46'0 0.0
2017-Feb-07 07:31N 01°17' E 103°46'0 0.0
2017-Feb-07 06:25N 01°17' E 103°46'0 0.0
2017-Feb-07 05:31N 01°17' E 103°46'0 0.0
2017-Feb-07 04:31N 01°17' E 103°46'0 0.0
2017-Feb-07 03:28N 01°17' E 103°46'0 0.0
2017-Feb-07 02:25N 01°17' E 103°46'0 0.0
2017-Feb-07 01:28N 01°17' E 103°46'0 0.0
2017-Feb-07 00:31N 01°17' E 103°46'0 0.0
2017-Feb-06 23:25N 01°17' E 103°46'0 0.0
2017-Feb-06 22:25N 01°17' E 103°46'1 0.9
2017-Feb-06 21:33N 01°17' E 103°45'4 3.7
2017-Feb-06 20:33N 01°14' E 103°47'4 3.4
2017-Feb-06 19:27N 01°16' E 103°50'0 0.0
2017-Feb-06 18:33N 01°16' E 103°50'0 0.0
2017-Feb-06 17:33N 01°16' E 103°50'0 0.0
2017-Feb-06 13:09N 01°16' E 103°50'0 0.0
2017-Feb-06 11:33N 01°16' E 103°50'0 0.1
2017-Feb-06 10:33N 01°16' E 103°50'0 0.1
2017-Feb-06 09:33N 01°16' E 103°50'0 0.1
2017-Feb-06 08:27N 01°16' E 103°50'0 0.0
2017-Feb-06 07:27N 01°16' E 103°50'0 0.0
2017-Feb-06 06:33N 01°16' E 103°50'0 0.0
2017-Feb-06 04:33N 01°16' E 103°50'1 1.5
2017-Feb-06 03:33N 01°15' E 103°52'0 0.1
2017-Feb-06 02:33N 01°15' E 103°52'0 0.0
2017-Feb-06 01:24N 01°15' E 103°52'0 0.0
2017-Feb-06 00:24N 01°15' E 103°52'0 0.0
2017-Feb-05 23:30N 01°15' E 103°52'0 0.1
2017-Feb-05 22:30N 01°15' E 103°52'0 0.0
2017-Feb-05 20:33N 01°15' E 103°52'0 0.0
2017-Feb-05 19:24N 01°15' E 103°52'3 3.0
2017-Feb-05 18:33N 01°13' E 103°52'2 2.0
2017-Feb-05 17:25N 01°13' E 103°49'4 4.4
2017-Feb-05 16:33N 01°13' E 103°53'5 5.3
2017-Feb-05 15:33N 01°15' E 103°58'  

Dump ship's entire track history